Time;durP1;ratioP1;P1;durP2;ratioP2;P2;SDS_P1;SDS_P2;PMS_P1;PMS_P2;Temp;Humidity;BMP_temperature;BMP_pressure;BME280_temperature;BME280_humidity;BME280_pressure;Samples;Min_cycle;Max_cycle;Signal;HPM_P1;HPM_P2
2022/08/21 00:00:30;;;;;;;12.00;11.03;;;;;;;-143.84;87.78;45049.06;5109504;28;20929;-75
2022/08/21 00:03:01;;;;;;;12.63;11.40;;;;;;;-143.84;87.73;45066.22;5109053;28;20518;-75
2022/08/21 00:05:28;;;;;;;13.33;11.93;;;;;;;-143.84;87.76;45039.53;5109458;28;21047;-74
2022/08/21 00:07:56;;;;;;;12.50;11.40;;;;;;;-143.84;88.13;45047.16;5109566;28;20447;-75
2022/08/21 00:10:23;;;;;;;13.70;11.87;;;;;;;-143.84;88.29;45083.34;5109142;28;20484;-75
2022/08/21 00:12:52;;;;;;;13.10;11.77;;;;;;;-143.84;88.31;45045.25;5109143;28;20479;-75
2022/08/21 00:15:23;;;;;;;13.83;12.43;;;;;;;-143.84;88.68;45071.91;5109091;28;20677;-74
2022/08/21 00:17:50;;;;;;;12.97;11.87;;;;;;;-143.84;89.21;45037.66;5109475;28;20435;-75
2022/08/21 00:20:18;;;;;;;14.00;12.70;;;;;;;-143.84;89.71;45058.59;5109478;28;20443;-75
2022/08/21 00:22:47;;;;;;;14.23;12.10;;;;;;;-143.84;89.72;45056.69;5109244;28;20485;-75
2022/08/21 00:25:15;;;;;;;14.30;11.10;;;;;;;-143.84;89.72;45047.16;5109003;28;20828;-75
2022/08/21 00:27:43;;;;;;;12.47;11.37;;;;;;;-143.84;89.77;45035.75;5109037;28;20443;-75
2022/08/21 00:30:15;;;;;;;16.63;11.97;;;;;;;-143.84;89.93;45056.69;5109304;28;20507;-75
2022/08/21 00:32:42;;;;;;;17.83;12.63;;;;;;;-143.84;90.31;45041.44;5109214;28;20474;-75
2022/08/21 00:35:12;;;;;;;13.70;12.30;;;;;;;-143.84;90.58;45031.94;5109058;28;20439;-75
2022/08/21 00:37:40;;;;;;;14.73;13.43;;;;;;;-143.84;90.55;45041.44;5109181;28;20439;-75
2022/08/21 00:40:10;;;;;;;15.63;14.10;;;;;;;-143.84;90.74;45050.97;5109098;28;20949;-75
2022/08/21 00:42:38;;;;;;;18.60;12.80;;;;;;;-143.84;90.81;45064.31;5108891;28;20439;-75
2022/08/21 00:45:07;;;;;;;14.37;12.10;;;;;;;-143.84;90.78;45052.88;5108808;28;20443;-75
2022/08/21 00:47:35;;;;;;;13.43;12.13;;;;;;;-143.84;90.16;45071.91;5108938;28;20508;-75
2022/08/21 00:50:04;;;;;;;13.50;11.40;;;;;;;-143.84;89.52;45056.69;5112539;28;20450;-75
2022/08/21 00:52:34;;;;;;;13.53;11.33;;;;;;;-143.84;89.58;45052.88;5112868;28;20474;-75
2022/08/21 00:55:02;;;;;;;13.37;12.17;;;;;;;-143.84;89.77;45039.53;5113305;28;21106;-75
2022/08/21 00:57:48;;;;;;;18.50;12.97;;;;;;;-143.84;90.10;45047.16;5112899;28;20431;-75
2022/08/21 01:00:18;;;;;;;12.37;11.23;;;;;;;-143.84;89.95;45058.59;5112748;28;20468;-75
2022/08/21 01:02:47;;;;;;;12.90;11.67;;;;;;;-143.84;90.09;45064.31;5112735;28;20511;-75
2022/08/21 01:05:15;;;;;;;13.83;12.37;;;;;;;-143.84;90.26;45037.66;5112632;28;20972;-75
2022/08/21 01:07:44;;;;;;;15.97;12.90;;;;;;;-143.84;89.66;45054.78;5112565;28;20446;-75
2022/08/21 01:10:12;;;;;;;12.97;11.77;;;;;;;-143.84;89.78;45056.69;5112748;28;20465;-75
2022/08/21 01:12:40;;;;;;;14.90;13.03;;;;;;;-143.84;90.15;45071.91;5112482;28;20474;-75
2022/08/21 01:15:09;;;;;;;17.03;13.20;;;;;;;-143.84;90.40;45033.84;5112381;28;20435;-75
2022/08/21 01:17:37;;;;;;;12.40;11.23;;;;;;;-143.84;90.27;45050.97;5112414;28;20443;-75
2022/08/21 01:20:11;;;;;;;12.00;10.70;;;;;;;-143.84;90.03;45068.13;5112287;28;20442;-75
2022/08/21 01:22:40;;;;;;;14.10;12.70;;;;;;;-143.84;89.32;45037.66;5112329;28;20450;-75
2022/08/21 01:25:08;;;;;;;15.27;12.43;;;;;;;-143.84;89.33;45071.91;5112291;28;20487;-75
2022/08/21 01:27:35;;;;;;;14.43;13.00;;;;;;;-143.84;89.54;45056.69;5112701;28;20443;-75
2022/08/21 01:30:11;;;;;;;14.63;13.10;;;;;;;-143.84;90.18;45041.44;5112256;28;20861;-75
2022/08/21 01:32:38;;;;;;;15.43;13.07;;;;;;;-143.84;90.68;45049.06;5112156;28;20481;-75
2022/08/21 01:35:06;;;;;;;14.57;13.27;;;;;;;-143.84;91.06;45073.81;5112149;28;20462;-75
2022/08/21 01:37:34;;;;;;;17.27;13.67;;;;;;;-143.84;91.35;45077.63;5111969;28;20469;-75
2022/08/21 01:40:04;;;;;;;20.83;12.93;;;;;;;-143.84;90.90;45071.91;5112186;28;20496;-75
2022/08/21 01:42:31;;;;;;;14.23;12.50;;;;;;;-143.84;90.52;45077.63;5111829;28;20534;-75
2022/08/21 01:44:58;;;;;;;21.70;13.20;;;;;;;-143.84;90.21;45047.16;5112500;27;20516;-75
2022/08/21 01:47:26;;;;;;;14.93;13.10;;;;;;;-143.84;90.48;45079.53;5111984;28;20496;-75
2022/08/21 01:49:54;;;;;;;18.20;13.63;;;;;;;-143.84;90.55;45075.72;5111929;28;20873;-75
2022/08/21 01:52:21;;;;;;;16.03;14.30;;;;;;;-143.84;91.02;45052.88;5111771;27;20446;-75
2022/08/21 01:54:48;;;;;;;14.67;13.10;;;;;;;-143.84;91.07;45070.00;5112086;28;20559;-75
2022/08/21 01:57:17;;;;;;;15.00;13.50;;;;;;;-143.84;91.04;45056.69;5111677;27;20430;-75
2022/08/21 01:59:44;;;;;;;16.03;13.50;;;;;;;-143.84;90.68;45058.59;5111183;28;21113;-75
2022/08/21 02:02:12;;;;;;;16.30;12.63;;;;;;;-143.84;90.95;45064.31;5111604;28;20459;-75
2022/08/21 02:04:39;;;;;;;16.13;12.63;;;;;;;-143.84;90.98;45047.16;5111690;28;20947;-75
2022/08/21 02:07:06;;;;;;;14.20;12.07;;;;;;;-143.84;91.12;45049.06;5111556;28;20492;-75
2022/08/21 02:09:34;;;;;;;13.40;11.63;;;;;;;-143.84;90.98;45041.44;5111554;28;20948;-75
2022/08/21 02:12:01;;;;;;;17.20;13.57;;;;;;;-143.84;90.58;45056.69;5111609;28;20558;-75
2022/08/21 02:14:30;;;;;;;16.63;12.20;;;;;;;-143.84;90.58;45071.91;5111668;28;20471;-75
2022/08/21 02:16:57;;;;;;;13.10;11.10;;;;;;;-143.84;90.48;45079.53;5111423;28;20491;-75
2022/08/21 02:19:24;;;;;;;12.97;11.57;;;;;;;-143.84;89.96;45054.78;5111449;28;20449;-75
2022/08/21 02:21:51;;;;;;;16.00;11.70;;;;;;;-143.84;90.24;45066.22;5111224;28;21298;-75
2022/08/21 02:24:18;;;;;;;15.60;13.07;;;;;;;-143.84;90.52;45077.63;5111018;28;20439;-75
2022/08/21 02:26:45;;;;;;;13.97;12.57;;;;;;;-143.84;90.96;45060.50;5111464;28;20496;-75
2022/08/21 02:29:13;;;;;;;15.23;13.80;;;;;;;-143.84;91.22;45081.44;5110948;28;20443;-75
2022/08/21 02:31:43;;;;;;;17.33;15.40;;;;;;;-143.84;91.42;45090.97;5111215;28;20442;-75
2022/08/21 02:34:11;;;;;;;16.03;14.13;;;;;;;-143.84;91.66;45062.41;5110903;28;21175;-75
2022/08/21 02:36:38;;;;;;;15.93;14.33;;;;;;;-143.84;92.17;45075.72;5111096;28;20435;-75
2022/08/21 02:39:05;;;;;;;17.10;15.40;;;;;;;-143.84;92.25;45062.41;5111001;28;20520;-75
2022/08/21 02:41:32;;;;;;;17.37;15.67;;;;;;;-143.84;92.45;45068.13;5110723;28;20959;-74
2022/08/21 02:43:59;;;;;;;18.27;16.47;;;;;;;-143.84;92.55;45085.25;5110861;27;20442;-75
2022/08/21 02:46:27;;;;;;;17.73;15.93;;;;;;;-143.84;92.27;45070.00;5110856;28;20435;-75
2022/08/21 02:48:55;;;;;;;16.30;14.80;;;;;;;-143.84;91.97;45045.25;5110675;28;20936;-75
2022/08/21 02:51:23;;;;;;;14.43;13.13;;;;;;;-143.84;92.00;45083.34;5110064;28;20492;-75
2022/08/21 02:53:51;;;;;;;18.93;13.63;;;;;;;-143.84;91.97;45049.06;5110026;28;20478;-75
2022/08/21 02:56:20;;;;;;;14.83;13.10;;;;;;;-143.84;92.09;45087.16;5110021;28;20503;-75
2022/08/21 02:58:50;;;;;;;14.73;13.23;;;;;;;-143.84;92.09;45052.88;5109935;28;20439;-75
2022/08/21 03:01:18;;;;;;;17.13;14.43;;;;;;;-143.84;92.29;45075.72;5109629;28;20474;-75
2022/08/21 03:03:49;;;;;;;15.57;13.90;;;;;;;-143.84;92.57;45052.88;5110631;28;20873;-75
2022/08/21 03:06:20;;;;;;;16.60;14.07;;;;;;;-143.84;92.57;45081.44;5110715;28;20996;-75
2022/08/21 03:08:47;;;;;;;16.63;14.93;;;;;;;-143.84;92.85;45077.63;5110610;27;20442;-75
2022/08/21 03:11:15;;;;;;;17.83;16.13;;;;;;;-143.84;93.13;45047.16;5110042;28;20439;-75
2022/08/21 03:13:43;;;;;;;21.13;18.20;;;;;;;-143.84;92.94;45071.91;5110295;28;20908;-75
2022/08/21 03:16:10;;;;;;;22.43;16.93;;;;;;;-143.84;92.91;45079.53;5110144;28;20471;-71
2022/08/21 03:18:38;;;;;;;19.33;17.33;;;;;;;-143.84;92.68;45073.81;5110848;28;20435;-70
2022/08/21 03:21:06;;;;;;;20.40;18.27;;;;;;;-143.84;93.03;45050.97;5111196;28;21005;-70
2022/08/21 03:23:35;;;;;;;20.07;17.60;;;;;;;-143.84;92.69;45068.13;5111248;28;20435;-70
2022/08/21 03:26:02;;;;;;;19.57;17.37;;;;;;;-143.84;92.67;45070.00;5110671;28;20567;-70
2022/08/21 03:28:29;;;;;;;20.90;17.83;;;;;;;-143.84;92.89;45073.81;5111029;28;20438;-70
2022/08/21 03:30:56;;;;;;;18.87;16.80;;;;;;;-143.84;92.99;45079.53;5111162;28;20439;-70
2022/08/21 03:33:24;;;;;;;19.60;17.70;;;;;;;-143.84;92.63;45041.44;5110926;27;20478;-71
2022/08/21 03:36:00;;;;;;;22.67;18.17;;;;;;;-143.84;92.60;45075.72;5111200;28;20439;-71
2022/08/21 03:38:30;;;;;;;19.63;17.07;;;;;;;-143.84;92.59;45050.97;5116049;27;20942;-71
2022/08/21 03:41:00;;;;;;;17.83;15.93;;;;;;;-143.84;92.42;45077.63;5131343;27;20438;-71
2022/08/21 03:43:27;;;;;;;19.53;17.43;;;;;;;-143.84;92.27;45089.06;5131060;27;20454;-70
2022/08/21 03:45:55;;;;;;;20.83;17.47;;;;;;;-143.84;92.33;45060.50;5131473;27;20456;-71
2022/08/21 03:48:22;;;;;;;21.40;18.30;;;;;;;-143.84;92.58;45054.78;5131570;27;20454;-71
2022/08/21 03:50:53;;;;;;;22.33;16.27;;;;;;;-143.84;92.63;45062.41;5131115;27;20798;-72
2022/08/21 03:53:21;;;;;;;16.50;13.87;;;;;;;-143.84;92.81;45083.34;5131103;27;20477;-71
2022/08/21 03:55:49;;;;;;;11.67;10.53;;;;;;;-143.84;93.00;45071.91;5131213;27;20874;-71
2022/08/21 03:58:20;;;;;;;10.70;9.67;;;;;;;-143.84;93.05;45075.72;5131133;27;20442;-71
2022/08/21 04:00:48;;;;;;;12.07;10.97;;;;;;;-143.84;93.05;45073.81;5131374;27;20431;-71
2022/08/21 04:03:16;;;;;;;10.50;9.60;;;;;;;-143.84;92.77;45066.22;5131635;27;20431;-70
2022/08/21 04:05:45;;;;;;;9.77;8.97;;;;;;;-143.84;92.32;45070.00;5130856;27;20426;-71
2022/08/21 04:08:12;;;;;;;9.33;8.40;;;;;;;-143.84;92.22;45062.41;5131153;27;20434;-71
2022/08/21 04:10:41;;;;;;;8.47;7.87;;;;;;;-143.84;92.03;45047.16;5131404;27;20483;-71
2022/08/21 04:13:09;;;;;;;8.63;7.90;;;;;;;-143.84;91.26;45070.00;5131313;27;20446;-71
2022/08/21 04:15:38;;;;;;;7.70;7.20;;;;;;;-143.84;90.51;45066.22;5131125;27;20445;-71
2022/08/21 04:18:06;;;;;;;9.20;7.90;;;;;;;-143.84;90.61;45049.06;5130453;27;20423;-70
2022/08/21 04:20:34;;;;;;;9.60;8.70;;;;;;;-143.84;90.18;45028.13;5130689;28;20426;-70
2022/08/21 04:23:01;;;;;;;9.07;8.37;;;;;;;-143.84;89.75;45041.44;5129922;27;20932;-72
2022/08/21 04:25:28;;;;;;;10.00;9.20;;;;;;;-143.84;89.50;45043.34;5130334;28;21011;-69
2022/08/21 04:27:55;;;;;;;11.83;10.83;;;;;;;-143.84;89.15;45052.88;5129562;28;20461;-69
2022/08/21 04:30:23;;;;;;;10.50;9.60;;;;;;;-143.84;88.94;45085.25;5130057;28;20430;-69
2022/08/21 04:32:52;;;;;;;10.00;9.20;;;;;;;-143.84;89.08;45052.88;5130420;28;20487;-69
2022/08/21 04:35:22;;;;;;;11.43;10.43;;;;;;;-143.84;88.82;45083.34;5130397;28;20482;-70
2022/08/21 04:37:50;;;;;;;11.60;10.20;;;;;;;-143.84;88.13;45083.34;5130080;28;20430;-69
2022/08/21 04:40:20;;;;;;;10.80;9.80;;;;;;;-143.84;87.05;45016.69;5111008;28;20454;-69
2022/08/21 04:42:50;;;;;;;10.60;9.80;;;;;;;-143.84;85.94;45033.84;5109483;28;20431;-70
2022/08/21 04:45:21;;;;;;;9.57;8.77;;;;;;;-143.84;84.41;45045.25;5109597;28;20447;-69
2022/08/21 04:47:52;;;;;;;9.30;8.50;;;;;;;-143.84;82.47;45028.13;5109742;28;20811;-70
2022/08/21 04:50:20;;;;;;;9.33;8.63;;;;;;;-143.84;80.76;45047.16;5109378;28;20504;-70
2022/08/21 04:52:48;;;;;;;9.93;9.10;;;;;;;-143.84;79.03;45026.22;5109222;28;20452;-70
2022/08/21 04:55:17;;;;;;;10.10;9.07;;;;;;;-143.84;76.87;45030.03;5109007;28;20570;-70
2022/08/21 04:57:45;;;;;;;10.17;9.27;;;;;;;-143.84;75.67;45033.84;5109206;28;20504;-70
2022/08/21 05:00:14;;;;;;;9.10;8.40;;;;;;;-143.84;73.53;45005.28;5109307;28;20449;-69
2022/08/21 05:02:42;;;;;;;10.40;9.40;;;;;;;-143.84;72.37;45030.03;5109471;28;20845;-69
2022/08/21 05:05:11;;;;;;;9.47;8.67;;;;;;;-143.84;71.21;44969.09;5109666;28;20508;-71
2022/08/21 05:07:39;;;;;;;9.77;8.97;;;;;;;-143.84;70.29;44980.53;5108959;28;21025;-71
2022/08/21 05:10:08;;;;;;;9.07;8.27;;;;;;;-143.84;68.49;44950.06;5109686;28;20435;-71
2022/08/21 05:12:36;;;;;;;8.07;7.47;;;;;;;-143.84;67.97;44965.28;5109434;28;20435;-69
2022/08/21 05:15:04;;;;;;;8.23;7.43;;;;;;;-143.84;66.17;44980.53;5109363;28;20473;-69
2022/08/21 05:17:32;;;;;;;8.10;7.30;;;;;;;-143.84;65.47;44965.28;5109480;28;20435;-71
2022/08/21 05:19:59;;;;;;;10.07;7.00;;;;;;;-143.84;63.03;44963.38;5109432;28;20458;-70
2022/08/21 05:22:27;;;;;;;6.53;5.80;;;;;;;-143.84;61.69;44948.16;5109662;28;20431;-70
2022/08/21 05:24:55;;;;;;;7.20;6.53;;;;;;;-143.84;60.62;44950.06;5109327;28;20474;-69
2022/08/21 05:27:22;;;;;;;8.47;6.90;;;;;;;-143.84;59.36;44906.25;5109337;28;20438;-69
2022/08/21 05:29:49;;;;;;;7.87;7.07;;;;;;;-143.84;58.88;44961.47;5109309;28;20434;-69
2022/08/21 05:32:17;;;;;;;7.87;7.10;;;;;;;-143.84;58.59;44959.56;5109493;28;20559;-69
2022/08/21 05:34:44;;;;;;;6.33;5.93;;;;;;;-143.84;56.93;44927.19;5109151;28;20480;-69
2022/08/21 05:37:12;;;;;;;8.77;6.30;;;;;;;-143.84;55.77;44913.88;5112643;28;20439;-71
2022/08/21 05:39:41;;;;;;;8.77;6.73;;;;;;;-143.84;54.89;44925.31;5125333;27;20520;-71
2022/08/21 05:42:08;;;;;;;6.50;6.00;;;;;;;-143.84;53.38;44900.53;5133150;27;20434;-70
2022/08/21 05:44:35;;;;;;;7.30;5.97;;;;;;;-143.84;52.36;44911.97;5133409;27;20446;-70
2022/08/21 05:47:07;;;;;;;8.03;7.10;;;;;;;-143.84;51.62;44892.94;5133384;27;20494;-69
2022/08/21 05:49:34;;;;;;;7.20;5.80;;;;;;;-143.84;52.64;44902.44;5133665;27;20438;-69
2022/08/21 05:52:02;;;;;;;9.23;6.30;;;;;;;-143.84;50.49;44911.97;5133121;27;20442;-69
2022/08/21 05:54:29;;;;;;;8.13;6.20;;;;;;;-143.84;50.46;44923.41;5133309;27;21245;-70
2022/08/21 05:56:58;;;;;;;10.10;6.67;;;;;;;-143.84;47.28;44896.75;5133118;27;20499;-69
2022/08/21 05:59:25;;;;;;;7.03;6.23;;;;;;;-143.84;48.83;44879.59;5133020;27;20437;-69
2022/08/21 06:01:53;;;;;;;7.40;6.80;;;;;;;-143.84;47.57;44866.28;5133012;27;20893;-69
2022/08/21 06:04:20;;;;;;;6.77;6.17;;;;;;;-143.84;47.81;44885.31;5132932;27;20513;-69
2022/08/21 06:06:48;;;;;;;9.67;6.50;;;;;;;-143.84;46.80;44879.59;5132928;27;20521;-69
2022/08/21 06:09:15;;;;;;;8.63;7.00;;;;;;;-143.84;46.38;44877.69;5132994;27;20528;-71
2022/08/21 06:11:43;;;;;;;6.43;5.90;;;;;;;-143.84;45.80;44883.41;5132697;27;20467;-71
2022/08/21 06:14:14;;;;;;;7.30;5.70;;;;;;;-143.84;46.22;44892.94;5132375;27;20484;-71
2022/08/21 06:16:41;;;;;;;7.17;6.40;;;;;;;-143.84;44.78;44894.84;5132805;27;20495;-71
2022/08/21 06:19:09;;;;;;;9.17;6.10;;;;;;;-143.84;44.30;44889.13;5132576;27;21010;-69
2022/08/21 06:21:36;;;;;;;6.30;5.70;;;;;;;-143.84;44.04;44879.59;5132505;27;20494;-69
2022/08/21 06:24:04;;;;;;;9.63;6.50;;;;;;;-143.84;44.47;44862.47;5132317;27;21076;-70
2022/08/21 06:26:31;;;;;;;6.83;6.13;;;;;;;-143.84;44.98;44858.66;5091799;28;20468;-70
2022/08/21 06:28:59;;;;;;;7.33;6.50;;;;;;;-143.84;45.16;44913.88;5091914;28;20830;-70
2022/08/21 06:31:28;;;;;;;7.93;6.60;;;;;;;-143.84;46.07;44881.50;5088407;28;20448;-71
2022/08/21 06:33:56;;;;;;;9.67;6.43;;;;;;;-143.84;48.11;44921.50;5091373;28;20436;-71
2022/08/21 06:36:23;;;;;;;7.00;6.23;;;;;;;-143.84;48.16;44904.34;5091659;28;21199;-71
2022/08/21 06:38:50;;;;;;;8.40;6.57;;;;;;;-143.84;47.39;44910.06;5091040;28;20440;-72
2022/08/21 06:41:18;;;;;;;5.53;5.13;;;;;;;-143.84;45.75;44898.66;5090665;28;21011;-71
2022/08/21 06:43:45;;;;;;;8.77;6.60;;;;;;;-143.84;48.08;44906.25;5091609;28;20428;-71
2022/08/21 06:46:12;;;;;;;6.97;6.00;;;;;;;-143.84;47.32;44898.66;5090748;28;21016;-71
2022/08/21 06:48:40;;;;;;;9.80;6.60;;;;;;;-143.84;47.54;44891.03;5090987;28;20431;-71
2022/08/21 06:51:08;;;;;;;6.43;5.83;;;;;;;-143.84;48.60;44883.41;5091172;28;20516;-71
2022/08/21 06:53:35;;;;;;;7.07;6.23;;;;;;;-143.84;48.11;44913.88;5091491;28;20489;-71
2022/08/21 06:56:02;;;;;;;6.30;5.70;;;;;;;-143.84;48.03;44892.94;5090950;28;20496;-79
2022/08/21 06:58:30;;;;;;;6.97;6.10;;;;;;;-143.84;47.14;44900.53;5092123;28;20444;-80
2022/08/21 07:00:58;;;;;;;7.23;5.87;;;;;;;-143.84;47.08;44854.84;5091927;28;20447;-80
2022/08/21 07:03:28;;;;;;;6.77;5.80;;;;;;;-143.84;44.58;44866.28;5092319;28;20844;-81
2022/08/21 07:05:58;;;;;;;5.73;5.23;;;;;;;-143.84;44.14;44870.09;5092032;28;20440;-81
2022/08/21 07:08:26;;;;;;;13.13;5.57;;;;;;;-143.84;43.29;44847.22;5092251;28;20439;-81
2022/08/21 07:10:55;;;;;;;5.60;4.97;;;;;;;-143.84;41.65;44862.47;5092213;28;20428;-81
2022/08/21 07:13:22;;;;;;;8.43;5.70;;;;;;;-143.84;41.82;44820.56;5091541;28;20451;-81
2022/08/21 07:15:50;;;;;;;22.90;5.50;;;;;;;-143.84;41.05;44839.63;5091747;28;20487;-81
2022/08/21 07:18:17;;;;;;;6.97;5.33;;;;;;;-143.84;40.73;44830.09;5090003;28;20444;-78
2022/08/21 07:20:44;;;;;;;6.67;5.13;;;;;;;-143.84;40.15;44824.38;5089577;28;21064;-78
2022/08/21 07:23:22;;;;;;;5.57;5.00;;;;;;;-143.84;39.22;44847.22;5090253;28;20440;-78
2022/08/21 07:25:49;;;;;;;5.50;4.87;;;;;;;-143.84;38.83;44835.81;5119377;27;20469;-78
2022/08/21 07:28:17;;;;;;;10.50;4.93;;;;;;;-143.84;39.15;44849.13;5131475;27;20430;-76
2022/08/21 07:30:44;;;;;;;14.60;5.20;;;;;;;-143.84;38.66;44833.91;5131430;27;20858;-78
2022/08/21 07:33:11;;;;;;;7.37;5.30;;;;;;;-143.84;38.61;44832.00;5132414;27;20939;-78
2022/08/21 07:35:38;;;;;;;4.23;3.93;;;;;;;-143.84;39.35;44847.22;5131906;27;20528;-76
2022/08/21 07:38:06;;;;;;;8.50;4.73;;;;;;;-143.84;40.26;44849.13;5131680;27;20441;-78
2022/08/21 07:40:34;;;;;;;8.33;5.10;;;;;;;-143.84;38.86;44843.44;5114857;27;20443;-78
2022/08/21 07:43:02;;;;;;;5.23;4.83;;;;;;;-143.84;38.62;44835.81;5111217;28;20445;-78
2022/08/21 07:45:30;;;;;;;6.70;5.17;;;;;;;-143.84;37.61;44797.72;5110951;28;20885;-76
2022/08/21 07:47:57;;;;;;;7.40;4.37;;;;;;;-143.84;39.08;44841.53;5111230;28;20431;-78
2022/08/21 07:50:25;;;;;;;8.70;5.03;;;;;;;-143.84;38.89;44843.44;5111048;28;20432;-78
2022/08/21 07:52:53;;;;;;;13.53;4.80;;;;;;;-143.84;38.24;44824.38;5111247;28;20509;-78
2022/08/21 07:55:21;;;;;;;11.27;5.73;;;;;;;-143.84;37.90;44814.88;5111201;28;20483;-78
2022/08/21 07:57:50;;;;;;;8.23;5.07;;;;;;;-143.84;38.25;44851.03;5109998;28;20808;-78
2022/08/21 08:00:19;;;;;;;9.80;5.13;;;;;;;-143.84;38.15;44847.22;5110717;28;20435;-78
2022/08/21 08:02:50;;;;;;;7.97;5.43;;;;;;;-143.84;38.09;44847.22;5111004;28;20759;-78
2022/08/21 08:05:19;;;;;;;12.50;5.20;;;;;;;-143.84;38.35;44828.19;5110772;28;20465;-76
2022/08/21 08:07:47;;;;;;;14.00;5.17;;;;;;;-143.84;36.93;44820.56;5110868;28;20435;-76
2022/08/21 08:10:14;;;;;;;9.10;4.93;;;;;;;-143.84;37.61;44843.44;5110339;28;20454;-76
2022/08/21 08:12:43;;;;;;;10.20;5.97;;;;;;;-143.84;37.66;44833.91;5110725;28;20470;-77
2022/08/21 08:15:16;;;;;;;6.47;5.00;;;;;;;-143.84;38.00;44841.53;5110714;28;20467;-77
2022/08/21 08:17:43;;;;;;;6.67;5.10;;;;;;;-143.84;38.63;44837.72;5110943;28;20508;-78
2022/08/21 08:20:12;;;;;;;23.50;5.73;;;;;;;-143.84;38.98;44839.63;5110748;28;20431;-78
2022/08/21 08:22:41;;;;;;;8.47;5.10;;;;;;;-143.84;39.40;44841.53;5110917;28;20476;-78
2022/08/21 08:25:10;;;;;;;6.43;4.87;;;;;;;-143.84;39.49;44866.28;5110810;28;21320;-76
2022/08/21 08:27:37;;;;;;;12.20;5.33;;;;;;;-143.84;40.23;44835.81;5110433;28;20492;-75
2022/08/21 08:30:06;;;;;;;7.70;5.57;;;;;;;-143.84;40.63;44877.69;5117379;27;20863;-76
2022/08/21 08:32:34;;;;;;;7.83;5.63;;;;;;;-143.84;40.09;44818.66;5123045;28;20454;-78
2022/08/21 08:35:01;;;;;;;10.43;6.50;;;;;;;-143.84;40.57;44862.47;5131217;28;20988;-77
2022/08/21 08:37:29;;;;;;;10.93;7.13;;;;;;;-143.84;40.51;44845.31;5129297;28;20442;-76
2022/08/21 08:39:56;;;;;;;20.37;6.80;;;;;;;-143.84;40.59;44873.88;5131864;27;20927;-75
2022/08/21 08:42:26;;;;;;;11.73;5.83;;;;;;;-143.84;41.45;44854.84;5130965;28;20959;-75
2022/08/21 08:45:00;;;;;;;16.37;5.87;;;;;;;-143.84;41.34;44864.38;5130999;28;20457;-77
2022/08/21 08:47:29;;;;;;;11.93;6.30;;;;;;;-143.84;41.49;44856.75;5131451;28;20426;-76
2022/08/21 08:50:04;;;;;;;14.57;6.40;;;;;;;-143.84;40.35;44847.22;5131332;28;20479;-76
2022/08/21 08:52:33;;;;;;;14.67;6.53;;;;;;;-143.84;40.57;44839.63;5131437;28;21054;-77
2022/08/21 08:55:06;;;;;;;13.20;6.67;;;;;;;-143.84;40.13;44852.94;5130944;28;20477;-77
2022/08/21 08:57:34;;;;;;;7.93;5.60;;;;;;;-143.84;40.12;44862.47;5130654;28;20475;-76
2022/08/21 09:00:06;;;;;;;12.53;6.03;;;;;;;-143.84;40.04;44832.00;5130839;28;20487;-76
2022/08/21 09:02:33;;;;;;;13.83;6.27;;;;;;;-143.84;40.27;44835.81;5130815;28;20492;-78
2022/08/21 09:05:02;;;;;;;13.50;6.67;;;;;;;-143.84;39.97;44835.81;5130510;28;20438;-78
2022/08/21 09:07:39;;;;;;;8.63;5.50;;;;;;;-143.84;39.19;44868.19;5131027;28;20442;-79
2022/08/21 09:10:15;;;;;;;10.50;6.30;;;;;;;-143.84;39.29;44828.19;5132738;27;20437;-78
2022/08/21 09:12:53;;;;;;;8.57;5.40;;;;;;;-143.84;39.23;44854.84;5134504;27;20508;-79
2022/08/21 09:15:30;;;;;;;10.40;6.10;;;;;;;-143.84;39.43;44860.56;5134978;27;20480;-78
2022/08/21 09:18:11;;;;;;;12.10;6.07;;;;;;;-143.84;39.69;44875.78;5134916;27;21000;-79
2022/08/21 09:20:50;;;;;;;13.17;6.40;;;;;;;-143.84;40.35;44832.00;5135112;27;20433;-80
2022/08/21 09:23:31;;;;;;;11.63;6.67;;;;;;;-143.84;40.68;44830.09;5135037;27;20442;-79
2022/08/21 09:26:05;;;;;;;13.73;5.70;;;;;;;-143.84;40.17;44833.91;5134198;27;20469;-76
2022/08/21 09:28:34;;;;;;;7.80;6.23;;;;;;;-143.84;39.83;44864.38;5133960;27;20503;-76
2022/08/21 09:31:03;;;;;;;16.33;5.80;;;;;;;-143.84;39.43;44812.97;5134059;27;20469;-73
2022/08/21 09:33:30;;;;;;;10.03;5.30;;;;;;;-143.84;38.35;44858.66;5132692;27;20498;-74
2022/08/21 09:35:59;;;;;;;7.47;5.73;;;;;;;-143.84;38.58;44854.84;5132577;27;20461;-74
2022/08/21 09:38:31;;;;;;;6.00;5.50;;;;;;;-143.84;39.78;44776.78;5132362;27;20446;-74
2022/08/21 09:41:02;;;;;;;6.50;5.40;;;;;;;-143.84;38.71;44824.38;5132604;27;20445;-74
2022/08/21 09:43:29;;;;;;;11.80;6.00;;;;;;;-143.84;38.58;44841.53;5131973;27;20453;-72
2022/08/21 09:46:09;;;;;;;7.60;6.07;;;;;;;-143.84;40.16;44835.81;5129890;27;20476;-74
2022/08/21 09:48:47;;;;;;;19.03;6.87;;;;;;;-143.84;39.72;44837.72;5111946;28;20503;-73
2022/08/21 09:51:18;;;;;;;10.13;6.80;;;;;;;-143.84;39.71;44856.75;5112275;28;20442;-73
2022/08/21 09:53:49;;;;;;;16.40;6.03;;;;;;;-143.84;39.78;44839.63;5111780;28;20435;-74
2022/08/21 09:59:20;;;;;;;19.43;6.97;;;;;;;-143.84;41.78;44822.47;5111842;28;20845;-73
2022/08/21 10:01:50;;;;;;;13.27;7.10;;;;;;;-143.84;41.61;44839.63;5111592;28;20439;-74
2022/08/21 10:04:22;;;;;;;8.17;5.57;;;;;;;-143.84;41.98;44824.38;5111838;28;20919;-72
2022/08/21 10:06:51;;;;;;;16.93;7.40;;;;;;;-143.84;42.26;44864.38;5111550;28;20527;-74
2022/08/21 10:09:21;;;;;;;7.33;6.47;;;;;;;-143.84;42.02;44868.19;5111448;28;20443;-73
2022/08/21 10:11:58;;;;;;;11.33;7.20;;;;;;;-143.84;43.26;44824.38;5110957;28;20440;-73
2022/08/21 10:14:44;;;;;;;19.30;7.60;;;;;;;-143.84;43.85;44845.31;5111308;28;20438;-74
2022/08/21 10:17:20;;;;;;;10.30;6.67;;;;;;;-143.84;44.47;44839.63;5111058;28;20589;-73
2022/08/21 10:19:55;;;;;;;13.87;7.33;;;;;;;-143.84;44.92;44864.38;5111201;28;20507;-74
2022/08/21 10:22:39;;;;;;;11.23;7.00;;;;;;;-143.84;45.33;44843.44;5110586;28;20434;-74
2022/08/21 10:25:18;;;;;;;8.43;7.53;;;;;;;-143.84;45.24;44877.69;5110894;28;20487;-73
2022/08/21 10:27:55;;;;;;;14.23;8.07;;;;;;;-143.84;46.64;44864.38;5110748;28;20893;-74
2022/08/21 10:30:34;;;;;;;14.23;7.87;;;;;;;-143.84;45.89;44864.38;5110948;28;20460;-74
2022/08/21 10:33:35;;;;;;;9.23;8.33;;;;;;;-143.84;46.67;44877.69;5110852;28;20435;-73
2022/08/21 10:36:14;;;;;;;9.97;8.93;;;;;;;-143.84;47.86;44877.69;5056034;28;20475;-73
2022/08/21 10:39:07;;;;;;;22.17;8.10;;;;;;;-143.84;47.62;44860.56;5110880;28;20435;-73
2022/08/21 10:41:48;;;;;;;10.10;8.37;;;;;;;-143.84;48.03;44877.69;5110339;28;20454;-73
2022/08/21 10:44:30;;;;;;;20.20;8.77;;;;;;;-143.84;47.98;44904.34;5110635;28;20427;-73
2022/08/21 10:47:02;;;;;;;15.30;9.80;;;;;;;-143.84;48.50;44875.78;5111034;28;20435;-74
2022/08/21 10:49:40;;;;;;;8.67;7.97;;;;;;;-143.84;48.83;44896.75;5110840;28;20764;-74
2022/08/21 10:52:28;;;;;;;15.40;9.30;;;;;;;-143.84;47.95;44896.75;5110845;28;20496;-73
2022/08/21 10:55:02;;;;;;;12.00;8.27;;;;;;;-143.84;49.61;44873.88;5110685;28;20454;-74
2022/08/21 10:57:39;;;;;;;17.43;8.73;;;;;;;-143.84;50.19;44877.69;5110079;28;20991;-71
2022/08/21 11:00:10;;;;;;;13.50;8.40;;;;;;;-143.84;50.93;44902.44;5110465;28;20431;-72
2022/08/21 11:02:42;;;;;;;10.60;8.60;;;;;;;-143.84;50.96;44908.16;5110619;28;21262;-72
2022/08/21 11:05:14;;;;;;;11.80;9.43;;;;;;;-143.84;51.01;44894.84;5110297;28;20438;-73
2022/08/21 11:07:48;;;;;;;13.47;9.07;;;;;;;-143.84;52.64;44862.47;5110480;28;20517;-73
2022/08/21 11:10:23;;;;;;;12.40;8.20;;;;;;;-143.84;52.04;44898.66;5110587;27;20492;-73
2022/08/21 11:12:55;;;;;;;22.43;9.63;;;;;;;-143.84;52.82;44881.50;5130027;27;20931;-72
2022/08/21 11:15:38;;;;;;;12.40;8.27;;;;;;;-143.84;53.78;44894.84;5131012;27;20427;-73
2022/08/21 11:18:16;;;;;;;10.23;8.80;;;;;;;-143.84;54.53;44902.44;5130604;27;20442;-75
2022/08/21 11:20:49;;;;;;;15.90;9.70;;;;;;;-143.84;55.54;44906.25;5130778;27;20426;-75
2022/08/21 11:23:24;;;;;;;10.13;8.93;;;;;;;-143.84;56.11;44881.50;5127567;27;20944;-75